Strona główna
METAR-TAF:

METAR-TAF

Lotnisko :

Port lotniczy Tennant Creek

Tennant Creek, Australia

Szerokość geograficzna: 19-38-04S, Długość geograficzna: 134-11-00E, wysokość: 377 m

Aktualna obserwacja pogody

Raport powstał 13 minut temu, godzina 08:00 UTC
Wiatr 15 kt od wschodnio-południowy wschód
Temperatura 21°C
Wilgotność 17%
Ciśnienie 1020 hPa
Widzialność 10 km lub więcej

METAR: YTNK 050800Z AUTO 11015KT 9999 // NCD 21/M05 Q1020

czas: 17:43 (08:13 UTC)

Prognoza

Raport powstał 1 godzina i 8 minut temu, godzina 07:05 UTC
Prognoza ważna od 05 godzina 08 UTC do 05 godzina 20 UTC
Wiatr 14 kt od wschodnio-południowy wschód
Widzialność 10 km lub więcej
Brak chmur poniżej 1500 m i brak chmur cumulonimbus

TAF: YTNK 050705Z 0508/0520 12014KT CAVOK

Obserwacja i prognoza pogody dla ponad 4000 lotnisk (raport METAR i TAF).

Dostępne stacje oznaczono żółtymi i czerwonymi punktami na mapie.

Najedź kursorem aby zobaczyć nazwę stacji.

Kliknij aby zobaczyć obserwacje i prognozy pogody.

Aby zmienić mapę: kliknij na zielony przycisk z czarnym krzyżykiem, aby powiększyć; na zielony przycisk z myślnikiem, aby pomniejszyć; na zielone strzałki, aby przejść do map sąsiednich.


METAR-TAF: